sensor_id;sensor_type;location;lat;lon;timestamp;P1;durP1;ratioP1;P2;durP2;ratioP2
39654;SDS011;25336;59.944;11.010;2022-12-07T00:00:52;28.98;;;15.30;;
39654;SDS011;25336;59.944;11.010;2022-12-07T00:03:18;24.17;;;15.07;;
39654;SDS011;25336;59.944;11.010;2022-12-07T00:05:43;24.00;;;13.60;;
39654;SDS011;25336;59.944;11.010;2022-12-07T00:08:09;22.70;;;13.25;;
39654;SDS011;25336;59.944;11.010;2022-12-07T00:10:34;21.92;;;11.88;;
39654;SDS011;25336;59.944;11.010;2022-12-07T00:13:00;17.50;;;10.70;;
39654;SDS011;25336;59.944;11.010;2022-12-07T00:15:26;17.35;;;11.40;;
39654;SDS011;25336;59.944;11.010;2022-12-07T00:17:51;27.35;;;14.82;;
39654;SDS011;25336;59.944;11.010;2022-12-07T00:20:17;30.65;;;15.07;;
39654;SDS011;25336;59.944;11.010;2022-12-07T00:22:42;27.85;;;13.93;;
39654;SDS011;25336;59.944;11.010;2022-12-07T00:25:08;18.67;;;10.70;;
39654;SDS011;25336;59.944;11.010;2022-12-07T00:27:34;18.40;;;9.75;;
39654;SDS011;25336;59.944;11.010;2022-12-07T00:29:59;15.10;;;9.05;;
39654;SDS011;25336;59.944;11.010;2022-12-07T00:32:25;15.85;;;9.38;;
39654;SDS011;25336;59.944;11.010;2022-12-07T00:34:51;14.65;;;9.77;;
39654;SDS011;25336;59.944;11.010;2022-12-07T00:37:16;14.57;;;9.18;;
39654;SDS011;25336;59.944;11.010;2022-12-07T00:39:42;14.27;;;8.60;;
39654;SDS011;25336;59.944;11.010;2022-12-07T00:42:08;11.50;;;8.05;;
39654;SDS011;25336;59.944;11.010;2022-12-07T00:44:33;13.27;;;8.57;;
39654;SDS011;25336;59.944;11.010;2022-12-07T00:46:59;13.63;;;8.45;;
39654;SDS011;25336;59.944;11.010;2022-12-07T00:49:24;13.65;;;7.72;;
39654;SDS011;25336;59.944;11.010;2022-12-07T00:51:50;11.65;;;7.95;;
39654;SDS011;25336;59.944;11.010;2022-12-07T00:54:16;13.90;;;7.55;;
39654;SDS011;25336;59.944;11.010;2022-12-07T00:56:41;10.18;;;6.80;;
39654;SDS011;25336;59.944;11.010;2022-12-07T00:59:10;11.40;;;7.03;;
39654;SDS011;25336;59.944;11.010;2022-12-07T01:01:38;14.07;;;6.95;;
39654;SDS011;25336;59.944;11.010;2022-12-07T01:04:04;12.25;;;6.88;;
39654;SDS011;25336;59.944;11.010;2022-12-07T01:06:30;9.43;;;6.45;;
39654;SDS011;25336;59.944;11.010;2022-12-07T01:08:56;11.82;;;7.72;;
39654;SDS011;25336;59.944;11.010;2022-12-07T01:11:25;7.93;;;6.20;;
39654;SDS011;25336;59.944;11.010;2022-12-07T01:13:52;11.07;;;6.50;;
39654;SDS011;25336;59.944;11.010;2022-12-07T01:16:20;12.93;;;6.70;;
39654;SDS011;25336;59.944;11.010;2022-12-07T01:18:47;12.07;;;6.55;;
39654;SDS011;25336;59.944;11.010;2022-12-07T01:21:16;9.15;;;6.45;;
39654;SDS011;25336;59.944;11.010;2022-12-07T01:23:45;10.55;;;7.20;;
39654;SDS011;25336;59.944;11.010;2022-12-07T01:26:11;29.92;;;15.45;;
39654;SDS011;25336;59.944;11.010;2022-12-07T01:28:38;25.17;;;11.75;;
39654;SDS011;25336;59.944;11.010;2022-12-07T01:31:09;21.52;;;11.00;;
39654;SDS011;25336;59.944;11.010;2022-12-07T01:33:47;19.58;;;9.32;;
39654;SDS011;25336;59.944;11.010;2022-12-07T01:38:44;13.38;;;7.60;;
39654;SDS011;25336;59.944;11.010;2022-12-07T01:41:10;9.65;;;6.25;;
39654;SDS011;25336;59.944;11.010;2022-12-07T01:43:36;17.02;;;8.07;;
39654;SDS011;25336;59.944;11.010;2022-12-07T01:46:31;12.55;;;6.38;;
39654;SDS011;25336;59.944;11.010;2022-12-07T01:48:56;14.73;;;7.30;;
39654;SDS011;25336;59.944;11.010;2022-12-07T01:51:22;14.15;;;6.35;;
39654;SDS011;25336;59.944;11.010;2022-12-07T01:53:48;16.52;;;7.15;;
39654;SDS011;25336;59.944;11.010;2022-12-07T01:56:15;9.35;;;6.15;;
39654;SDS011;25336;59.944;11.010;2022-12-07T01:58:43;7.93;;;5.20;;
39654;SDS011;25336;59.944;11.010;2022-12-07T02:01:10;7.90;;;5.18;;
39654;SDS011;25336;59.944;11.010;2022-12-07T02:03:42;10.90;;;4.75;;
39654;SDS011;25336;59.944;11.010;2022-12-07T02:06:10;10.63;;;5.43;;
39654;SDS011;25336;59.944;11.010;2022-12-07T02:08:38;11.90;;;5.65;;
39654;SDS011;25336;59.944;11.010;2022-12-07T02:11:04;8.95;;;5.90;;
39654;SDS011;25336;59.944;11.010;2022-12-07T02:13:33;7.72;;;4.22;;
39654;SDS011;25336;59.944;11.010;2022-12-07T02:35:17;8.98;;;3.80;;
39654;SDS011;25336;59.944;11.010;2022-12-07T02:40:14;7.00;;;4.18;;
39654;SDS011;25336;59.944;11.010;2022-12-07T02:45:14;6.75;;;3.60;;
39654;SDS011;25336;59.944;11.010;2022-12-07T02:47:43;5.88;;;4.28;;
39654;SDS011;25336;59.944;11.010;2022-12-07T02:50:11;6.65;;;3.53;;
39654;SDS011;25336;59.944;11.010;2022-12-07T02:52:37;5.80;;;3.25;;
39654;SDS011;25336;59.944;11.010;2022-12-07T02:55:03;5.63;;;3.47;;
39654;SDS011;25336;59.944;11.010;2022-12-07T02:57:37;4.13;;;3.00;;
39654;SDS011;25336;59.944;11.010;2022-12-07T03:00:15;7.30;;;3.67;;
39654;SDS011;25336;59.944;11.010;2022-12-07T03:10:58;3.85;;;3.30;;
39654;SDS011;25336;59.944;11.010;2022-12-07T03:13:39;3.38;;;3.08;;
39654;SDS011;25336;59.944;11.010;2022-12-07T03:16:30;6.50;;;2.30;;
39654;SDS011;25336;59.944;11.010;2022-12-07T03:19:10;4.57;;;3.00;;
39654;SDS011;25336;59.944;11.010;2022-12-07T03:21:46;3.42;;;2.63;;
39654;SDS011;25336;59.944;11.010;2022-12-07T03:24:17;7.78;;;2.85;;
39654;SDS011;25336;59.944;11.010;2022-12-07T03:26:47;5.50;;;3.47;;
39654;SDS011;25336;59.944;11.010;2022-12-07T03:29:19;3.08;;;2.38;;
39654;SDS011;25336;59.944;11.010;2022-12-07T03:31:51;4.03;;;2.47;;
39654;SDS011;25336;59.944;11.010;2022-12-07T03:34:32;2.28;;;2.05;;
39654;SDS011;25336;59.944;11.010;2022-12-07T03:37:04;3.40;;;2.30;;
39654;SDS011;25336;59.944;11.010;2022-12-07T03:42:04;4.40;;;2.85;;
39654;SDS011;25336;59.944;11.010;2022-12-07T03:44:33;5.00;;;3.10;;
39654;SDS011;25336;59.944;11.010;2022-12-07T03:50:06;5.30;;;3.67;;
39654;SDS011;25336;59.944;11.010;2022-12-07T03:52:39;4.93;;;3.40;;
39654;SDS011;25336;59.944;11.010;2022-12-07T03:55:15;6.55;;;3.95;;
39654;SDS011;25336;59.944;11.010;2022-12-07T03:57:51;7.10;;;3.13;;
39654;SDS011;25336;59.944;11.010;2022-12-07T04:00:21;3.28;;;2.95;;
39654;SDS011;25336;59.944;11.010;2022-12-07T04:02:47;6.55;;;4.10;;
39654;SDS011;25336;59.944;11.010;2022-12-07T04:05:17;3.25;;;2.83;;
39654;SDS011;25336;59.944;11.010;2022-12-07T04:07:43;3.55;;;3.22;;
39654;SDS011;25336;59.944;11.010;2022-12-07T04:10:09;5.90;;;3.30;;
39654;SDS011;25336;59.944;11.010;2022-12-07T04:12:35;4.05;;;3.38;;
39654;SDS011;25336;59.944;11.010;2022-12-07T04:15:01;6.88;;;5.13;;
39654;SDS011;25336;59.944;11.010;2022-12-07T04:17:27;8.10;;;5.05;;
39654;SDS011;25336;59.944;11.010;2022-12-07T04:19:52;9.77;;;4.88;;
39654;SDS011;25336;59.944;11.010;2022-12-07T04:22:18;5.75;;;3.65;;
39654;SDS011;25336;59.944;11.010;2022-12-07T04:24:44;4.97;;;3.00;;
39654;SDS011;25336;59.944;11.010;2022-12-07T04:27:09;2.35;;;2.08;;
39654;SDS011;25336;59.944;11.010;2022-12-07T04:29:35;5.90;;;2.85;;
39654;SDS011;25336;59.944;11.010;2022-12-07T04:32:00;4.93;;;2.55;;
39654;SDS011;25336;59.944;11.010;2022-12-07T04:34:26;2.72;;;2.53;;
39654;SDS011;25336;59.944;11.010;2022-12-07T04:36:52;5.43;;;3.85;;
39654;SDS011;25336;59.944;11.010;2022-12-07T04:39:21;5.38;;;3.80;;
39654;SDS011;25336;59.944;11.010;2022-12-07T04:41:49;8.73;;;4.60;;
39654;SDS011;25336;59.944;11.010;2022-12-07T04:44:15;7.65;;;4.25;;
39654;SDS011;25336;59.944;11.010;2022-12-07T04:46:41;6.28;;;3.85;;
39654;SDS011;25336;59.944;11.010;2022-12-07T04:49:08;6.60;;;4.07;;
39654;SDS011;25336;59.944;11.010;2022-12-07T04:51:33;6.50;;;4.00;;
39654;SDS011;25336;59.944;11.010;2022-12-07T04:53:59;10.75;;;5.45;;
39654;SDS011;25336;59.944;11.010;2022-12-07T04:56:24;7.60;;;4.05;;
39654;SDS011;25336;59.944;11.010;2022-12-07T04:58:51;13.57;;;7.30;;
39654;SDS011;25336;59.944;11.010;2022-12-07T05:01:18;8.38;;;5.57;;
39654;SDS011;25336;59.944;11.010;2022-12-07T05:03:44;24.35;;;9.38;;
39654;SDS011;25336;59.944;11.010;2022-12-07T05:06:10;37.17;;;14.05;;
39654;SDS011;25336;59.944;11.010;2022-12-07T05:08:36;52.13;;;19.67;;
39654;SDS011;25336;59.944;11.010;2022-12-07T05:11:03;53.42;;;17.95;;
39654;SDS011;25336;59.944;11.010;2022-12-07T05:13:30;45.55;;;17.02;;
39654;SDS011;25336;59.944;11.010;2022-12-07T05:15:56;35.63;;;13.25;;
39654;SDS011;25336;59.944;11.010;2022-12-07T05:18:22;48.40;;;17.75;;
39654;SDS011;25336;59.944;11.010;2022-12-07T05:20:48;41.65;;;14.30;;
39654;SDS011;25336;59.944;11.010;2022-12-07T05:23:14;34.38;;;12.18;;
39654;SDS011;25336;59.944;11.010;2022-12-07T05:25:39;26.13;;;9.35;;
39654;SDS011;25336;59.944;11.010;2022-12-07T05:28:05;14.45;;;5.97;;
39654;SDS011;25336;59.944;11.010;2022-12-07T05:30:31;18.90;;;5.93;;
39654;SDS011;25336;59.944;11.010;2022-12-07T05:32:57;8.52;;;4.38;;
39654;SDS011;25336;59.944;11.010;2022-12-07T05:35:23;9.43;;;3.88;;
39654;SDS011;25336;59.944;11.010;2022-12-07T05:37:48;11.40;;;4.05;;
39654;SDS011;25336;59.944;11.010;2022-12-07T05:40:14;7.45;;;3.80;;
39654;SDS011;25336;59.944;11.010;2022-12-07T05:42:40;10.20;;;3.05;;
39654;SDS011;25336;59.944;11.010;2022-12-07T05:45:07;9.98;;;3.22;;
39654;SDS011;25336;59.944;11.010;2022-12-07T05:47:33;10.98;;;3.72;;
39654;SDS011;25336;59.944;11.010;2022-12-07T05:49:59;7.70;;;3.13;;
39654;SDS011;25336;59.944;11.010;2022-12-07T05:52:25;3.80;;;2.83;;
39654;SDS011;25336;59.944;11.010;2022-12-07T05:54:51;7.15;;;4.35;;
39654;SDS011;25336;59.944;11.010;2022-12-07T05:57:16;7.57;;;3.72;;
39654;SDS011;25336;59.944;11.010;2022-12-07T05:59:42;10.90;;;3.63;;
39654;SDS011;25336;59.944;11.010;2022-12-07T06:02:09;12.63;;;3.97;;
39654;SDS011;25336;59.944;11.010;2022-12-07T06:04:38;5.90;;;4.38;;
39654;SDS011;25336;59.944;11.010;2022-12-07T06:07:05;13.18;;;5.13;;
39654;SDS011;25336;59.944;11.010;2022-12-07T06:09:32;7.28;;;4.38;;
39654;SDS011;25336;59.944;11.010;2022-12-07T06:11:58;11.02;;;5.10;;
39654;SDS011;25336;59.944;11.010;2022-12-07T06:14:43;12.77;;;6.60;;
39654;SDS011;25336;59.944;11.010;2022-12-07T06:17:09;5.45;;;3.97;;
39654;SDS011;25336;59.944;11.010;2022-12-07T06:19:35;9.52;;;4.90;;
39654;SDS011;25336;59.944;11.010;2022-12-07T06:22:01;14.32;;;7.15;;
39654;SDS011;25336;59.944;11.010;2022-12-07T06:24:29;16.20;;;8.43;;
39654;SDS011;25336;59.944;11.010;2022-12-07T06:26:55;13.18;;;7.10;;
39654;SDS011;25336;59.944;11.010;2022-12-07T06:29:21;17.38;;;8.10;;
39654;SDS011;25336;59.944;11.010;2022-12-07T06:31:47;11.27;;;6.95;;
39654;SDS011;25336;59.944;11.010;2022-12-07T06:34:14;14.07;;;8.40;;
39654;SDS011;25336;59.944;11.010;2022-12-07T06:36:41;12.98;;;7.25;;
39654;SDS011;25336;59.944;11.010;2022-12-07T06:39:07;16.50;;;8.80;;
39654;SDS011;25336;59.944;11.010;2022-12-07T06:41:34;16.65;;;8.95;;
39654;SDS011;25336;59.944;11.010;2022-12-07T06:44:07;14.85;;;8.65;;
39654;SDS011;25336;59.944;11.010;2022-12-07T06:46:32;11.23;;;6.50;;
39654;SDS011;25336;59.944;11.010;2022-12-07T06:49:00;14.30;;;7.07;;
39654;SDS011;25336;59.944;11.010;2022-12-07T06:51:26;9.25;;;5.32;;
39654;SDS011;25336;59.944;11.010;2022-12-07T06:53:51;11.65;;;5.97;;
39654;SDS011;25336;59.944;11.010;2022-12-07T06:56:17;8.10;;;5.38;;
39654;SDS011;25336;59.944;11.010;2022-12-07T06:58:43;7.82;;;4.88;;
39654;SDS011;25336;59.944;11.010;2022-12-07T07:01:12;9.65;;;6.75;;
39654;SDS011;25336;59.944;11.010;2022-12-07T07:03:39;13.73;;;6.28;;
39654;SDS011;25336;59.944;11.010;2022-12-07T07:06:05;12.80;;;5.95;;
39654;SDS011;25336;59.944;11.010;2022-12-07T07:08:32;9.63;;;6.18;;
39654;SDS011;25336;59.944;11.010;2022-12-07T07:10:58;8.07;;;3.83;;
39654;SDS011;25336;59.944;11.010;2022-12-07T07:13:24;8.95;;;4.68;;
39654;SDS011;25336;59.944;11.010;2022-12-07T07:15:49;7.28;;;4.68;;
39654;SDS011;25336;59.944;11.010;2022-12-07T07:18:15;6.32;;;4.97;;
39654;SDS011;25336;59.944;11.010;2022-12-07T07:20:41;37.03;;;12.93;;
39654;SDS011;25336;59.944;11.010;2022-12-07T07:23:06;38.47;;;13.65;;
39654;SDS011;25336;59.944;11.010;2022-12-07T07:25:32;32.40;;;13.43;;
39654;SDS011;25336;59.944;11.010;2022-12-07T07:27:58;29.98;;;11.95;;
39654;SDS011;25336;59.944;11.010;2022-12-07T07:30:25;21.90;;;10.43;;
39654;SDS011;25336;59.944;11.010;2022-12-07T07:32:51;10.65;;;6.88;;
39654;SDS011;25336;59.944;11.010;2022-12-07T07:35:16;11.32;;;6.40;;
39654;SDS011;25336;59.944;11.010;2022-12-07T07:37:42;11.40;;;6.03;;
39654;SDS011;25336;59.944;11.010;2022-12-07T07:40:08;7.68;;;4.60;;
39654;SDS011;25336;59.944;11.010;2022-12-07T07:42:34;16.77;;;5.03;;
39654;SDS011;25336;59.944;11.010;2022-12-07T07:45:00;18.45;;;6.57;;
39654;SDS011;25336;59.944;11.010;2022-12-07T07:47:26;14.25;;;7.10;;
39654;SDS011;25336;59.944;11.010;2022-12-07T07:49:51;17.60;;;8.48;;
39654;SDS011;25336;59.944;11.010;2022-12-07T07:52:17;15.50;;;8.48;;
39654;SDS011;25336;59.944;11.010;2022-12-07T07:54:42;20.27;;;9.27;;
39654;SDS011;25336;59.944;11.010;2022-12-07T07:57:08;24.30;;;14.98;;
39654;SDS011;25336;59.944;11.010;2022-12-07T07:59:34;26.25;;;16.42;;
39654;SDS011;25336;59.944;11.010;2022-12-07T08:01:59;19.35;;;11.85;;
39654;SDS011;25336;59.944;11.010;2022-12-07T08:04:25;15.23;;;8.45;;
39654;SDS011;25336;59.944;11.010;2022-12-07T08:06:51;11.13;;;6.90;;
39654;SDS011;25336;59.944;11.010;2022-12-07T08:09:16;10.20;;;5.43;;
39654;SDS011;25336;59.944;11.010;2022-12-07T08:11:42;11.05;;;5.70;;
39654;SDS011;25336;59.944;11.010;2022-12-07T08:14:09;8.35;;;5.05;;
39654;SDS011;25336;59.944;11.010;2022-12-07T08:16:35;13.02;;;8.68;;
39654;SDS011;25336;59.944;11.010;2022-12-07T08:19:03;29.63;;;15.50;;
39654;SDS011;25336;59.944;11.010;2022-12-07T08:21:29;21.17;;;12.55;;
39654;SDS011;25336;59.944;11.010;2022-12-07T08:23:56;18.17;;;10.02;;
39654;SDS011;25336;59.944;11.010;2022-12-07T08:26:22;13.90;;;8.25;;
39654;SDS011;25336;59.944;11.010;2022-12-07T08:28:47;9.90;;;6.00;;
39654;SDS011;25336;59.944;11.010;2022-12-07T08:31:14;10.30;;;5.55;;
39654;SDS011;25336;59.944;11.010;2022-12-07T08:33:44;10.55;;;5.45;;
39654;SDS011;25336;59.944;11.010;2022-12-07T08:36:11;8.13;;;6.60;;
39654;SDS011;25336;59.944;11.010;2022-12-07T08:38:38;16.65;;;7.50;;
39654;SDS011;25336;59.944;11.010;2022-12-07T08:41:05;34.15;;;19.10;;
39654;SDS011;25336;59.944;11.010;2022-12-07T08:43:31;18.38;;;10.30;;
39654;SDS011;25336;59.944;11.010;2022-12-07T08:46:10;22.00;;;10.77;;
39654;SDS011;25336;59.944;11.010;2022-12-07T08:48:44;19.77;;;11.55;;
39654;SDS011;25336;59.944;11.010;2022-12-07T08:51:15;15.63;;;9.40;;
39654;SDS011;25336;59.944;11.010;2022-12-07T08:53:40;23.40;;;10.70;;
39654;SDS011;25336;59.944;11.010;2022-12-07T08:56:07;20.92;;;10.65;;
39654;SDS011;25336;59.944;11.010;2022-12-07T08:58:34;27.33;;;10.63;;
39654;SDS011;25336;59.944;11.010;2022-12-07T09:01:02;23.55;;;12.60;;
39654;SDS011;25336;59.944;11.010;2022-12-07T09:03:28;30.75;;;14.88;;
39654;SDS011;25336;59.944;11.010;2022-12-07T09:05:54;21.98;;;10.98;;
39654;SDS011;25336;59.944;11.010;2022-12-07T09:08:20;24.75;;;13.00;;
39654;SDS011;25336;59.944;11.010;2022-12-07T09:10:50;26.27;;;12.23;;
39654;SDS011;25336;59.944;11.010;2022-12-07T09:13:15;33.65;;;13.63;;
39654;SDS011;25336;59.944;11.010;2022-12-07T09:15:41;37.65;;;19.92;;
39654;SDS011;25336;59.944;11.010;2022-12-07T09:18:07;53.70;;;21.92;;
39654;SDS011;25336;59.944;11.010;2022-12-07T09:20:34;40.90;;;20.20;;
39654;SDS011;25336;59.944;11.010;2022-12-07T09:23:00;31.75;;;14.63;;
39654;SDS011;25336;59.944;11.010;2022-12-07T09:25:26;34.28;;;15.80;;
39654;SDS011;25336;59.944;11.010;2022-12-07T09:27:55;27.83;;;13.77;;
39654;SDS011;25336;59.944;11.010;2022-12-07T09:30:22;23.83;;;10.27;;
39654;SDS011;25336;59.944;11.010;2022-12-07T09:32:48;27.38;;;11.60;;
39654;SDS011;25336;59.944;11.010;2022-12-07T09:35:13;19.80;;;8.93;;
39654;SDS011;25336;59.944;11.010;2022-12-07T09:37:39;10.63;;;6.07;;
39654;SDS011;25336;59.944;11.010;2022-12-07T09:40:05;8.05;;;5.72;;
39654;SDS011;25336;59.944;11.010;2022-12-07T09:42:35;10.10;;;4.78;;
39654;SDS011;25336;59.944;11.010;2022-12-07T09:45:05;11.23;;;4.88;;
39654;SDS011;25336;59.944;11.010;2022-12-07T09:47:37;6.30;;;3.90;;
39654;SDS011;25336;59.944;11.010;2022-12-07T09:50:04;14.70;;;8.55;;
39654;SDS011;25336;59.944;11.010;2022-12-07T09:52:32;18.98;;;10.00;;
39654;SDS011;25336;59.944;11.010;2022-12-07T09:54:58;20.58;;;8.10;;
39654;SDS011;25336;59.944;11.010;2022-12-07T09:57:31;17.20;;;11.10;;
39654;SDS011;25336;59.944;11.010;2022-12-07T10:00:04;23.60;;;12.27;;
39654;SDS011;25336;59.944;11.010;2022-12-07T10:05:03;16.83;;;7.05;;
39654;SDS011;25336;59.944;11.010;2022-12-07T10:07:30;9.90;;;7.07;;
39654;SDS011;25336;59.944;11.010;2022-12-07T10:09:56;18.98;;;10.90;;
39654;SDS011;25336;59.944;11.010;2022-12-07T10:12:21;13.38;;;8.23;;
39654;SDS011;25336;59.944;11.010;2022-12-07T10:14:55;14.93;;;8.80;;
39654;SDS011;25336;59.944;11.010;2022-12-07T10:20:18;34.58;;;15.70;;
39654;SDS011;25336;59.944;11.010;2022-12-07T10:25:24;50.70;;;22.73;;
39654;SDS011;25336;59.944;11.010;2022-12-07T10:28:03;52.95;;;22.25;;
39654;SDS011;25336;59.944;11.010;2022-12-07T10:30:46;49.08;;;17.80;;
39654;SDS011;25336;59.944;11.010;2022-12-07T10:33:26;68.30;;;27.58;;
39654;SDS011;25336;59.944;11.010;2022-12-07T10:36:18;84.40;;;25.67;;
39654;SDS011;25336;59.944;11.010;2022-12-07T10:38:50;66.38;;;29.08;;
39654;SDS011;25336;59.944;11.010;2022-12-07T10:41:23;34.90;;;17.77;;
39654;SDS011;25336;59.944;11.010;2022-12-07T10:43:49;36.42;;;17.00;;
39654;SDS011;25336;59.944;11.010;2022-12-07T10:54:31;10.90;;;7.45;;
39654;SDS011;25336;59.944;11.010;2022-12-07T10:57:27;16.88;;;8.65;;
39654;SDS011;25336;59.944;11.010;2022-12-07T11:00:23;11.60;;;7.70;;
39654;SDS011;25336;59.944;11.010;2022-12-07T11:08:13;10.60;;;4.60;;
39654;SDS011;25336;59.944;11.010;2022-12-07T11:10:52;5.30;;;3.40;;
39654;SDS011;25336;59.944;11.010;2022-12-07T11:13:27;6.20;;;4.32;;
39654;SDS011;25336;59.944;11.010;2022-12-07T11:21:27;17.48;;;9.75;;
39654;SDS011;25336;59.944;11.010;2022-12-07T11:24:10;19.23;;;10.48;;
39654;SDS011;25336;59.944;11.010;2022-12-07T11:26:58;16.50;;;8.60;;
39654;SDS011;25336;59.944;11.010;2022-12-07T11:29:47;11.57;;;6.40;;
39654;SDS011;25336;59.944;11.010;2022-12-07T11:38:08;8.65;;;4.70;;
39654;SDS011;25336;59.944;11.010;2022-12-07T11:40:40;13.23;;;6.72;;
39654;SDS011;25336;59.944;11.010;2022-12-07T11:45:51;10.25;;;5.72;;
39654;SDS011;25336;59.944;11.010;2022-12-07T11:48:35;7.40;;;5.20;;
39654;SDS011;25336;59.944;11.010;2022-12-07T11:51:09;4.30;;;3.77;;
39654;SDS011;25336;59.944;11.010;2022-12-07T11:53:41;7.07;;;4.50;;
39654;SDS011;25336;59.944;11.010;2022-12-07T11:56:12;10.30;;;3.88;;
39654;SDS011;25336;59.944;11.010;2022-12-07T11:58:51;8.68;;;3.53;;
39654;SDS011;25336;59.944;11.010;2022-12-07T12:06:42;9.48;;;3.90;;
39654;SDS011;25336;59.944;11.010;2022-12-07T12:09:16;17.63;;;3.40;;
39654;SDS011;25336;59.944;11.010;2022-12-07T12:14:48;7.88;;;3.58;;
39654;SDS011;25336;59.944;11.010;2022-12-07T12:20:25;6.75;;;4.78;;
39654;SDS011;25336;59.944;11.010;2022-12-07T12:25:50;4.78;;;3.75;;
39654;SDS011;25336;59.944;11.010;2022-12-07T12:33:38;9.60;;;5.85;;
39654;SDS011;25336;59.944;11.010;2022-12-07T12:36:16;16.33;;;6.47;;
39654;SDS011;25336;59.944;11.010;2022-12-07T12:38:49;7.15;;;4.32;;
39654;SDS011;25336;59.944;11.010;2022-12-07T12:51:42;25.45;;;11.60;;
39654;SDS011;25336;59.944;11.010;2022-12-07T12:54:14;24.70;;;11.88;;
39654;SDS011;25336;59.944;11.010;2022-12-07T13:01:48;25.08;;;10.43;;
39654;SDS011;25336;59.944;11.010;2022-12-07T13:06:59;20.08;;;10.57;;
39654;SDS011;25336;59.944;11.010;2022-12-07T13:09:29;26.17;;;12.23;;
39654;SDS011;25336;59.944;11.010;2022-12-07T13:12:03;24.38;;;10.20;;
39654;SDS011;25336;59.944;11.010;2022-12-07T13:17:11;27.63;;;13.60;;
39654;SDS011;25336;59.944;11.010;2022-12-07T13:19:58;16.98;;;8.80;;
39654;SDS011;25336;59.944;11.010;2022-12-07T13:25:05;11.30;;;5.18;;
39654;SDS011;25336;59.944;11.010;2022-12-07T13:27:59;5.10;;;2.65;;
39654;SDS011;25336;59.944;11.010;2022-12-07T13:30:32;4.65;;;2.55;;
39654;SDS011;25336;59.944;11.010;2022-12-07T13:33:10;2.47;;;1.50;;
39654;SDS011;25336;59.944;11.010;2022-12-07T13:35:37;1.90;;;1.73;;
39654;SDS011;25336;59.944;11.010;2022-12-07T13:38:23;6.72;;;4.40;;
39654;SDS011;25336;59.944;11.010;2022-12-07T13:51:52;4.82;;;3.35;;
39654;SDS011;25336;59.944;11.010;2022-12-07T13:54:20;4.07;;;3.10;;
39654;SDS011;25336;59.944;11.010;2022-12-07T13:56:48;4.90;;;3.00;;
39654;SDS011;25336;59.944;11.010;2022-12-07T13:59:18;4.87;;;3.20;;
39654;SDS011;25336;59.944;11.010;2022-12-07T14:01:47;6.40;;;3.83;;
39654;SDS011;25336;59.944;11.010;2022-12-07T14:04:28;7.05;;;3.40;;
39654;SDS011;25336;59.944;11.010;2022-12-07T14:06:59;5.28;;;2.97;;
39654;SDS011;25336;59.944;11.010;2022-12-07T14:09:27;4.68;;;2.78;;
39654;SDS011;25336;59.944;11.010;2022-12-07T14:11:55;4.32;;;2.30;;
39654;SDS011;25336;59.944;11.010;2022-12-07T14:14:29;3.85;;;2.38;;
39654;SDS011;25336;59.944;11.010;2022-12-07T14:22:20;3.95;;;2.60;;
39654;SDS011;25336;59.944;11.010;2022-12-07T14:24:57;3.47;;;2.75;;
39654;SDS011;25336;59.944;11.010;2022-12-07T14:27:34;4.45;;;2.95;;
39654;SDS011;25336;59.944;11.010;2022-12-07T14:30:01;7.47;;;3.08;;
39654;SDS011;25336;59.944;11.010;2022-12-07T14:32:29;3.85;;;2.70;;
39654;SDS011;25336;59.944;11.010;2022-12-07T14:35:00;2.78;;;2.53;;
39654;SDS011;25336;59.944;11.010;2022-12-07T14:37:45;2.85;;;2.13;;
39654;SDS011;25336;59.944;11.010;2022-12-07T14:40:13;5.15;;;2.53;;
39654;SDS011;25336;59.944;11.010;2022-12-07T14:42:40;4.50;;;2.75;;
39654;SDS011;25336;59.944;11.010;2022-12-07T14:45:12;4.93;;;2.47;;
39654;SDS011;25336;59.944;11.010;2022-12-07T14:47:40;3.95;;;2.70;;
39654;SDS011;25336;59.944;11.010;2022-12-07T14:50:06;3.83;;;2.97;;
39654;SDS011;25336;59.944;11.010;2022-12-07T14:52:32;3.35;;;2.78;;
39654;SDS011;25336;59.944;11.010;2022-12-07T14:54:58;2.88;;;2.33;;
39654;SDS011;25336;59.944;11.010;2022-12-07T14:57:23;4.55;;;2.65;;
39654;SDS011;25336;59.944;11.010;2022-12-07T14:59:49;5.35;;;3.17;;
39654;SDS011;25336;59.944;11.010;2022-12-07T15:02:15;7.07;;;3.97;;
39654;SDS011;25336;59.944;11.010;2022-12-07T15:04:41;5.28;;;3.08;;
39654;SDS011;25336;59.944;11.010;2022-12-07T15:07:15;10.88;;;3.97;;
39654;SDS011;25336;59.944;11.010;2022-12-07T15:09:46;12.38;;;6.47;;
39654;SDS011;25336;59.944;11.010;2022-12-07T15:12:12;7.72;;;4.65;;
39654;SDS011;25336;59.944;11.010;2022-12-07T15:14:38;5.38;;;3.97;;
39654;SDS011;25336;59.944;11.010;2022-12-07T15:17:04;9.57;;;5.75;;
39654;SDS011;25336;59.944;11.010;2022-12-07T15:19:29;8.98;;;4.60;;
39654;SDS011;25336;59.944;11.010;2022-12-07T15:21:55;6.82;;;4.47;;
39654;SDS011;25336;59.944;11.010;2022-12-07T15:24:23;7.90;;;5.68;;
39654;SDS011;25336;59.944;11.010;2022-12-07T15:26:49;6.07;;;4.65;;
39654;SDS011;25336;59.944;11.010;2022-12-07T15:29:14;7.38;;;4.85;;
39654;SDS011;25336;59.944;11.010;2022-12-07T15:31:42;11.95;;;8.15;;
39654;SDS011;25336;59.944;11.010;2022-12-07T15:34:08;20.30;;;15.35;;
39654;SDS011;25336;59.944;11.010;2022-12-07T15:36:34;20.23;;;13.63;;
39654;SDS011;25336;59.944;11.010;2022-12-07T15:39:00;15.98;;;11.00;;
39654;SDS011;25336;59.944;11.010;2022-12-07T15:41:26;14.88;;;11.60;;
39654;SDS011;25336;59.944;11.010;2022-12-07T15:43:52;16.67;;;11.40;;
39654;SDS011;25336;59.944;11.010;2022-12-07T15:46:37;14.88;;;11.40;;
39654;SDS011;25336;59.944;11.010;2022-12-07T15:49:06;10.63;;;7.78;;
39654;SDS011;25336;59.944;11.010;2022-12-07T15:51:38;17.73;;;11.00;;
39654;SDS011;25336;59.944;11.010;2022-12-07T15:54:04;19.52;;;11.00;;
39654;SDS011;25336;59.944;11.010;2022-12-07T15:56:30;18.00;;;10.38;;
39654;SDS011;25336;59.944;11.010;2022-12-07T15:58:56;17.35;;;9.95;;
39654;SDS011;25336;59.944;11.010;2022-12-07T16:01:22;22.02;;;11.55;;
39654;SDS011;25336;59.944;11.010;2022-12-07T16:03:48;19.05;;;12.45;;
39654;SDS011;25336;59.944;11.010;2022-12-07T16:06:17;18.67;;;10.77;;
39654;SDS011;25336;59.944;11.010;2022-12-07T16:08:45;17.13;;;10.55;;
39654;SDS011;25336;59.944;11.010;2022-12-07T16:11:11;14.02;;;8.75;;
39654;SDS011;25336;59.944;11.010;2022-12-07T16:13:37;14.02;;;7.45;;
39654;SDS011;25336;59.944;11.010;2022-12-07T16:16:07;17.08;;;8.25;;
39654;SDS011;25336;59.944;11.010;2022-12-07T16:18:36;17.17;;;9.70;;
39654;SDS011;25336;59.944;11.010;2022-12-07T16:21:02;21.02;;;8.85;;
39654;SDS011;25336;59.944;11.010;2022-12-07T16:23:28;16.42;;;10.25;;
39654;SDS011;25336;59.944;11.010;2022-12-07T16:25:54;18.25;;;11.45;;
39654;SDS011;25336;59.944;11.010;2022-12-07T16:28:20;104.95;;;49.97;;
39654;SDS011;25336;59.944;11.010;2022-12-07T16:30:45;76.47;;;34.30;;
39654;SDS011;25336;59.944;11.010;2022-12-07T16:33:12;38.30;;;18.30;;
39654;SDS011;25336;59.944;11.010;2022-12-07T16:35:38;30.00;;;13.55;;
39654;SDS011;25336;59.944;11.010;2022-12-07T16:38:07;27.02;;;13.30;;
39654;SDS011;25336;59.944;11.010;2022-12-07T16:40:33;19.70;;;10.40;;
39654;SDS011;25336;59.944;11.010;2022-12-07T16:42:58;31.00;;;14.50;;
39654;SDS011;25336;59.944;11.010;2022-12-07T16:45:24;27.88;;;13.95;;
39654;SDS011;25336;59.944;11.010;2022-12-07T16:47:49;23.25;;;9.88;;